Time;durP1;ratioP1;P1;durP2;ratioP2;P2;SDS_P1;SDS_P2;PMS_P1;PMS_P2;Temp;Humidity;BMP_temperature;BMP_pressure;BME280_temperature;BME280_humidity;BME280_pressure;Samples;Min_cycle;Max_cycle;Signal;HPM_P1;HPM_P2
2021/05/03 10:53:43;;;;;;;4.55;2.92;;;8.10;99.90;;;;;;5106420;27;20474;-95
2021/05/03 10:56:11;;;;;;;4.00;2.67;;;8.00;99.90;;;;;;5125710;28;20027;-94
2021/05/03 10:58:55;;;;;;;4.28;2.80;;;8.00;99.90;;;;;;5101673;28;20020;-93
2021/05/03 11:01:21;;;;;;;2.83;2.28;;;8.00;99.90;;;;;;5102913;28;20378;-92
2021/05/03 11:03:58;;;;;;;4.70;2.80;;;8.00;99.90;;;;;;5103888;28;20036;-94
2021/05/03 11:06:36;;;;;;;6.25;3.20;;;7.90;99.90;;;;;;5108813;28;20028;-94
2021/05/03 11:09:38;;;;;;;4.13;2.85;;;7.90;99.90;;;;;;5107073;28;20024;-94
2021/05/03 11:12:10;;;;;;;3.47;2.45;;;7.90;99.90;;;;;;5107123;28;20035;-93
2021/05/03 11:15:13;;;;;;;3.63;2.30;;;7.90;99.90;;;;;;5108580;28;20129;-94
2021/05/03 11:18:15;;;;;;;3.63;2.03;;;7.90;99.90;;;;;;5104911;28;20024;-94
2021/05/03 11:21:09;;;;;;;3.53;2.38;;;7.80;99.90;;;;;;5101334;28;20016;-93
2021/05/03 11:23:38;;;;;;;3.50;2.70;;;7.80;99.90;;;;;;5106023;28;20036;-96
2021/05/03 11:26:04;;;;;;;4.35;2.90;;;7.90;99.90;;;;;;5102552;28;20028;-96
2021/05/03 11:28:38;;;;;;;4.70;3.28;;;7.80;99.90;;;;;;5102039;28;20092;-93
2021/05/03 11:31:15;;;;;;;4.32;3.00;;;7.80;99.90;;;;;;5108055;28;20025;-94
2021/05/03 11:33:48;;;;;;;4.45;3.67;;;7.80;99.90;;;;;;5107458;28;20375;-95
2021/05/03 11:36:27;;;;;;;4.93;2.75;;;7.80;99.90;;;;;;5107229;28;20028;-95
2021/05/03 11:41:36;;;;;;;4.10;2.67;;;7.80;99.90;;;;;;5109514;28;20032;-94
2021/05/03 11:46:47;;;;;;;3.70;2.85;;;7.70;99.90;;;;;;5119429;28;20031;-95
2021/05/03 11:49:19;;;;;;;7.93;3.22;;;7.70;99.90;;;;;;5119970;28;20020;-93
2021/05/03 11:51:59;;;;;;;4.43;3.00;;;7.70;99.90;;;;;;5118893;28;20044;-91
2021/05/03 11:54:41;;;;;;;5.93;2.63;;;7.70;99.90;;;;;;5102671;28;20043;-96
2021/05/03 11:57:18;;;;;;;3.38;2.30;;;7.60;99.90;;;;;;5096625;28;20031;-95
2021/05/03 12:00:00;;;;;;;3.72;1.95;;;7.60;99.90;;;;;;5098941;28;20103;-95
2021/05/03 12:02:27;;;;;;;3.10;1.90;;;7.60;99.90;;;;;;5101737;28;20047;-96
2021/05/03 12:05:13;;;;;;;3.35;2.08;;;7.60;99.90;;;;;;5099483;28;20028;-95
2021/05/03 12:07:39;;;;;;;2.15;1.92;;;7.60;99.90;;;;;;5099269;28;20024;-96
2021/05/03 12:10:16;;;;;;;2.58;2.22;;;7.60;99.90;;;;;;5100702;28;20012;-95
2021/05/03 12:12:47;;;;;;;2.88;1.88;;;7.50;99.90;;;;;;5085396;28;20482;-94
2021/05/03 12:15:21;;;;;;;2.22;1.40;;;7.50;99.90;;;;;;5091228;28;20038;-94
2021/05/03 12:17:47;;;;;;;2.10;1.83;;;7.50;99.90;;;;;;5085639;28;20031;-95
2021/05/03 12:20:23;;;;;;;3.22;1.75;;;7.50;99.90;;;;;;5088109;28;20020;-94
2021/05/03 12:22:58;;;;;;;3.05;1.67;;;7.50;99.90;;;;;;5094237;28;20532;-94
2021/05/03 12:25:25;;;;;;;2.22;1.40;;;7.40;99.90;;;;;;5086296;28;20364;-94
2021/05/03 12:27:51;;;;;;;1.23;0.93;;;7.40;99.90;;;;;;5091859;28;20032;-96
2021/05/03 12:30:18;;;;;;;1.45;1.35;;;7.40;99.90;;;;;;5092593;28;20044;-95
2021/05/03 12:32:44;;;;;;;1.50;1.30;;;7.40;99.90;;;;;;5088157;28;20040;-95
2021/05/03 12:35:17;;;;;;;0.73;0.73;;;7.40;99.90;;;;;;5087559;28;20121;-95
2021/05/03 12:37:43;;;;;;;2.75;1.58;;;7.30;99.90;;;;;;5086448;28;20146;-94
2021/05/03 12:40:18;;;;;;;2.22;1.25;;;7.20;99.90;;;;;;5089014;28;20032;-94
2021/05/03 12:42:51;;;;;;;3.70;1.60;;;7.20;99.90;;;;;;5067958;28;20028;-94
2021/05/03 12:45:41;;;;;;;1.17;0.90;;;7.10;99.90;;;;;;5089882;28;20032;-95
2021/05/03 12:48:31;;;;;;;1.00;0.90;;;7.10;99.90;;;;;;5085294;28;20043;-95
2021/05/03 12:54:12;;;;;;;2.80;2.05;;;7.00;99.90;;;;;;5087049;28;20143;-94
2021/05/03 12:57:19;;;;;;;3.17;1.98;;;7.00;99.90;;;;;;5087408;28;20085;-94
2021/05/03 13:00:28;;;;;;;2.38;1.63;;;7.00;99.90;;;;;;5090637;28;20040;-95
2021/05/03 13:05:35;;;;;;;2.78;1.67;;;7.00;99.90;;;;;;5081768;28;20024;-95
2021/05/03 13:08:09;;;;;;;4.07;1.90;;;7.00;99.90;;;;;;5083308;28;20028;-95
2021/05/03 13:24:56;;;;;;;2.53;2.15;;;6.90;99.90;;;;;;5087164;28;20055;-95
2021/05/03 13:30:27;;;;;;;3.13;1.90;;;6.90;99.90;;;;;;5091075;28;20043;-94
2021/05/03 13:32:55;;;;;;;4.88;2.85;;;6.90;99.90;;;;;;5093255;28;20052;-94
2021/05/03 13:38:26;;;;;;;2.25;1.65;;;6.90;99.90;;;;;;5089202;28;20028;-95
2021/05/03 13:40:52;;;;;;;2.67;1.30;;;6.90;99.90;;;;;;5088186;28;20084;-94
2021/05/03 13:43:24;;;;;;;2.80;1.65;;;6.90;99.90;;;;;;5087271;28;20029;-95
2021/05/03 13:45:49;;;;;;;3.30;1.67;;;6.90;99.90;;;;;;5084995;28;20032;-94
2021/05/03 13:48:18;;;;;;;7.88;2.10;;;6.90;99.90;;;;;;5086370;28;20149;-94
2021/05/03 13:51:02;;;;;;;3.53;1.98;;;6.90;99.90;;;;;;5083565;28;20016;-94
2021/05/03 13:53:31;;;;;;;2.92;2.40;;;6.90;99.90;;;;;;5089363;28;20047;-94
2021/05/03 13:55:59;;;;;;;2.08;1.65;;;6.90;99.90;;;;;;5092287;28;20032;-94
2021/05/03 13:58:25;;;;;;;2.03;1.80;;;7.00;99.90;;;;;;5092461;28;20024;-95
2021/05/03 14:00:51;;;;;;;3.30;1.95;;;7.00;99.90;;;;;;5095187;28;20036;-93
2021/05/03 14:03:16;;;;;;;3.35;2.20;;;7.00;99.90;;;;;;5089909;28;20068;-92
2021/05/03 14:05:42;;;;;;;2.95;1.70;;;7.10;99.90;;;;;;5090167;28;20062;-92
2021/05/03 14:08:08;;;;;;;3.70;2.25;;;7.10;99.90;;;;;;5090910;28;20021;-93
2021/05/03 14:10:34;;;;;;;2.17;1.98;;;7.10;99.90;;;;;;5089612;28;20539;-93
2021/05/03 14:13:02;;;;;;;4.25;2.10;;;7.20;99.90;;;;;;5088785;28;20034;-94
2021/05/03 14:15:33;;;;;;;2.15;1.95;;;7.20;99.90;;;;;;5088784;28;20016;-92
2021/05/03 14:17:59;;;;;;;1.63;1.40;;;7.20;99.90;;;;;;5089677;28;20035;-93
2021/05/03 14:20:25;;;;;;;1.85;1.50;;;7.20;99.90;;;;;;5089956;28;20489;-93
2021/05/03 14:22:51;;;;;;;4.30;2.08;;;7.30;99.90;;;;;;5089004;28;20032;-93
2021/05/03 14:25:30;;;;;;;3.92;2.30;;;7.30;99.90;;;;;;5091012;28;20012;-93
2021/05/03 14:27:59;;;;;;;2.50;1.50;;;7.30;99.90;;;;;;5091429;28;20035;-93
2021/05/03 14:35:40;;;;;;;3.67;2.42;;;7.40;99.90;;;;;;5093133;28;20115;-92
2021/05/03 14:38:09;;;;;;;7.13;3.92;;;7.40;99.90;;;;;;5092452;28;20086;-95
2021/05/03 14:40:37;;;;;;;2.40;1.75;;;7.40;99.90;;;;;;5091945;28;20119;-93
2021/05/03 14:43:17;;;;;;;;;;;;;;;;;;;;;
2021/05/03 14:45:53;;;;;;;;;;;7.40;99.90;;;;;;5090704;28;20645;-93
2021/05/03 14:48:31;;;;;;;7.78;4.25;;;7.40;99.90;;;;;;5089260;28;19912;-94
2021/05/03 14:56:11;;;;;;;8.40;3.05;;;7.50;99.90;;;;;;5090955;28;20092;-94
2021/05/03 14:58:39;;;;;;;6.35;3.08;;;7.40;99.90;;;;;;5090172;28;20024;-93
2021/05/03 15:01:04;;;;;;;3.80;1.85;;;7.50;99.90;;;;;;5091064;28;20092;-94
2021/05/03 15:03:33;;;;;;;5.63;2.97;;;7.50;99.90;;;;;;5091772;28;20064;-94
2021/05/03 15:06:00;;;;;;;6.60;3.05;;;7.50;99.90;;;;;;5092090;28;20067;-93
2021/05/03 15:08:27;;;;;;;5.22;2.50;;;7.60;99.90;;;;;;5093728;28;20035;-93
2021/05/03 15:10:53;;;;;;;4.97;2.90;;;7.60;99.90;;;;;;5093478;28;20120;-94
2021/05/03 15:13:24;;;;;;;2.60;1.80;;;7.60;99.90;;;;;;5095308;28;20023;-94
2021/05/03 15:19:16;;;;;;;1.75;1.13;;;7.60;99.90;;;;;;5085018;28;20052;-92
2021/05/03 15:21:42;;;;;;;2.85;1.35;;;7.60;99.90;;;;;;5095234;28;20032;-94
2021/05/03 15:24:15;;;;;;;3.78;1.25;;;7.60;99.90;;;;;;5097366;28;20039;-95
2021/05/03 15:26:58;;;;;;;2.15;1.27;;;7.70;99.90;;;;;;5089895;28;20024;-93
2021/05/03 15:29:38;;;;;;;1.08;0.80;;;7.60;99.90;;;;;;5082077;28;20028;-93
2021/05/03 15:32:21;;;;;;;1.10;0.93;;;7.60;99.90;;;;;;5103470;28;20032;-93
2021/05/03 15:34:47;;;;;;;1.88;0.82;;;7.60;99.90;;;;;;5106433;28;20066;-95
2021/05/03 15:37:13;;;;;;;1.92;1.20;;;7.60;99.90;;;;;;5096333;28;20111;-93
2021/05/03 15:39:41;;;;;;;2.65;1.30;;;7.60;99.90;;;;;;5105462;28;20020;-93
2021/05/03 15:42:08;;;;;;;4.13;1.45;;;7.60;99.90;;;;;;5108422;28;20051;-94
2021/05/03 15:44:38;;;;;;;1.50;1.17;;;7.60;99.90;;;;;;5102798;28;20020;-93
2021/05/03 15:47:04;;;;;;;3.05;1.50;;;7.60;99.90;;;;;;5106291;28;20031;-93
2021/05/03 15:49:31;;;;;;;1.27;1.10;;;7.60;99.90;;;;;;5107492;28;20048;-93
2021/05/03 15:51:57;;;;;;;2.22;0.75;;;7.60;99.90;;;;;;5105453;28;20028;-92
2021/05/03 15:54:25;;;;;;;1.55;0.95;;;7.60;99.90;;;;;;5108950;28;20024;-93
2021/05/03 15:56:53;;;;;;;2.40;1.00;;;7.60;99.90;;;;;;5106582;28;20031;-94
2021/05/03 15:59:22;;;;;;;2.03;0.77;;;7.60;99.90;;;;;;5102342;28;20024;-92
2021/05/03 16:01:50;;;;;;;3.22;1.50;;;7.60;99.90;;;;;;5107592;28;20027;-92
2021/05/03 16:04:18;;;;;;;4.25;1.20;;;7.50;99.90;;;;;;5096295;28;20099;-92
2021/05/03 16:06:49;;;;;;;1.58;1.08;;;7.50;99.90;;;;;;5085386;28;20029;-91
2021/05/03 16:09:19;;;;;;;2.25;1.40;;;7.60;99.90;;;;;;5086946;28;20062;-92
2021/05/03 16:11:46;;;;;;;4.82;1.88;;;7.60;99.90;;;;;;5085029;28;20028;-93
2021/05/03 16:14:26;;;;;;;3.45;1.02;;;7.60;99.90;;;;;;5086365;28;20020;-92
2021/05/03 16:16:52;;;;;;;3.13;1.00;;;7.60;99.90;;;;;;5096482;28;20028;-93
2021/05/03 16:19:18;;;;;;;5.13;1.77;;;7.60;99.90;;;;;;5080537;28;20475;-92
2021/05/03 16:21:44;;;;;;;4.55;1.55;;;7.60;99.90;;;;;;5076169;28;20059;-93
2021/05/03 16:24:13;;;;;;;3.38;0.90;;;7.60;99.90;;;;;;5080651;28;20063;-92
2021/05/03 16:26:38;;;;;;;1.02;0.80;;;7.60;99.90;;;;;;5081511;28;20023;-94
2021/05/03 16:29:04;;;;;;;1.50;0.98;;;7.70;99.90;;;;;;5084164;28;20119;-93
2021/05/03 16:31:30;;;;;;;3.70;1.77;;;7.70;99.90;;;;;;5082559;28;20074;-92
2021/05/03 16:33:56;;;;;;;1.23;1.13;;;7.70;99.90;;;;;;5081033;28;20025;-93
2021/05/03 16:36:21;;;;;;;5.22;0.57;;;7.80;99.90;;;;;;5079799;28;20108;-94
2021/05/03 16:38:48;;;;;;;4.25;1.35;;;7.80;99.90;;;;;;5080532;28;20543;-93
2021/05/03 16:41:14;;;;;;;4.35;1.02;;;7.80;99.90;;;;;;5079151;28;20029;-94
2021/05/03 16:43:40;;;;;;;3.33;0.73;;;7.80;99.90;;;;;;5080423;28;20036;-93
2021/05/03 16:46:07;;;;;;;1.35;0.98;;;7.80;99.90;;;;;;5083416;28;20437;-92
2021/05/03 16:48:34;;;;;;;3.42;1.10;;;7.90;99.90;;;;;;5074519;28;20024;-94
2021/05/03 16:51:03;;;;;;;0.85;0.73;;;7.90;99.90;;;;;;5081698;28;20059;-94
2021/05/03 16:53:31;;;;;;;1.02;0.68;;;7.90;99.90;;;;;;5074838;28;20206;-95
2021/05/03 16:55:56;;;;;;;1.67;0.75;;;7.90;99.90;;;;;;5092497;28;20028;-93
2021/05/03 16:58:22;;;;;;;2.28;0.90;;;7.90;99.90;;;;;;5083577;28;20169;-93
2021/05/03 17:00:49;;;;;;;2.85;0.90;;;7.90;99.90;;;;;;5081531;28;20025;-95
2021/05/03 17:03:15;;;;;;;4.05;1.00;;;7.90;99.90;;;;;;5084943;28;20032;-93
2021/05/03 17:05:41;;;;;;;2.67;0.82;;;7.90;99.90;;;;;;5081819;28;20016;-93
2021/05/03 17:08:09;;;;;;;3.53;1.45;;;7.90;99.90;;;;;;5076892;28;20029;-94
2021/05/03 17:10:38;;;;;;;2.58;1.20;;;7.90;99.90;;;;;;5081103;28;20027;-92
2021/05/03 17:13:05;;;;;;;1.55;1.00;;;8.00;99.90;;;;;;5080350;28;20397;-94
2021/05/03 17:15:31;;;;;;;2.85;1.40;;;7.90;99.90;;;;;;5086542;28;20027;-92
2021/05/03 17:17:57;;;;;;;2.70;2.03;;;8.00;99.90;;;;;;5081134;28;20024;-94
2021/05/03 17:20:23;;;;;;;2.50;1.35;;;7.90;99.90;;;;;;5079356;28;20608;-94
2021/05/03 17:22:49;;;;;;;3.22;1.50;;;8.00;99.90;;;;;;5081095;28;20041;-93
2021/05/03 17:25:15;;;;;;;5.85;1.13;;;8.00;99.90;;;;;;5080456;28;20433;-93
2021/05/03 17:27:41;;;;;;;1.08;0.63;;;8.00;99.90;;;;;;5077116;28;20039;-92
2021/05/03 17:30:10;;;;;;;2.03;1.42;;;8.10;99.90;;;;;;5091479;28;20021;-94
2021/05/03 17:32:36;;;;;;;2.75;1.35;;;8.10;99.90;;;;;;5090467;28;20024;-95
2021/05/03 17:35:03;;;;;;;3.45;1.38;;;8.10;99.90;;;;;;5083928;28;20035;-92
2021/05/03 17:37:29;;;;;;;4.93;1.30;;;8.10;99.90;;;;;;5104341;28;20024;-93
2021/05/03 17:39:54;;;;;;;2.38;1.02;;;8.10;99.90;;;;;;5099943;28;20103;-94
2021/05/03 17:42:20;;;;;;;3.20;1.15;;;8.00;99.90;;;;;;5092601;28;20050;-93
2021/05/03 17:44:46;;;;;;;3.97;1.05;;;8.00;99.90;;;;;;5096858;28;20028;-94
2021/05/03 17:47:12;;;;;;;1.52;0.90;;;8.10;99.90;;;;;;5097421;28;20493;-93
2021/05/03 17:49:38;;;;;;;9.00;1.40;;;8.00;99.90;;;;;;5101133;28;20383;-94
2021/05/03 17:52:07;;;;;;;0.90;0.80;;;8.00;99.90;;;;;;5099746;28;20052;-93
2021/05/03 17:54:33;;;;;;;2.45;0.80;;;8.10;99.90;;;;;;5100403;28;20024;-93
2021/05/03 17:56:58;;;;;;;1.33;0.90;;;8.10;99.90;;;;;;5085645;28;20017;-94
2021/05/03 17:59:25;;;;;;;0.93;0.82;;;8.10;99.90;;;;;;5104849;28;20080;-94
2021/05/03 18:01:50;;;;;;;4.43;1.27;;;8.10;99.90;;;;;;5113168;28;20056;-92
2021/05/03 18:04:16;;;;;;;3.17;1.13;;;8.10;99.90;;;;;;5091170;28;20064;-93
2021/05/03 18:06:44;;;;;;;2.30;1.38;;;8.10;99.90;;;;;;5107668;28;20036;-94
2021/05/03 18:09:10;;;;;;;4.53;1.92;;;8.10;99.90;;;;;;5100593;28;20175;-94
2021/05/03 18:11:43;;;;;;;4.53;1.60;;;8.10;99.90;;;;;;5094572;28;20012;-93
2021/05/03 18:14:09;;;;;;;2.25;0.88;;;8.10;99.90;;;;;;5092519;28;20059;-93
2021/05/03 18:16:36;;;;;;;1.70;0.90;;;8.10;99.90;;;;;;5084870;28;20028;-95
2021/05/03 18:19:02;;;;;;;2.60;0.85;;;8.00;99.90;;;;;;5078517;28;20032;-95
2021/05/03 18:21:30;;;;;;;2.00;0.68;;;7.90;99.90;;;;;;5084880;28;20051;-94
2021/05/03 18:24:04;;;;;;;2.95;0.90;;;7.90;99.90;;;;;;5083309;28;20103;-94
2021/05/03 18:26:31;;;;;;;2.90;0.50;;;7.80;99.90;;;;;;5078797;28;20035;-95
2021/05/03 18:28:57;;;;;;;3.22;1.88;;;7.80;99.90;;;;;;5094105;28;20020;-94
2021/05/03 18:31:26;;;;;;;3.38;1.15;;;7.80;99.90;;;;;;5083342;28;20028;-94
2021/05/03 18:33:54;;;;;;;1.35;0.73;;;7.70;99.90;;;;;;5098013;28;20071;-95
2021/05/03 18:36:19;;;;;;;1.55;0.55;;;7.80;99.90;;;;;;5098431;28;20035;-94
2021/05/03 18:38:46;;;;;;;1.95;0.77;;;7.80;99.90;;;;;;5077829;28;20028;-94
2021/05/03 18:41:16;;;;;;;3.75;0.68;;;7.80;99.90;;;;;;5077993;28;20024;-95
2021/05/03 18:43:43;;;;;;;4.85;1.17;;;7.80;99.90;;;;;;5079357;28;20035;-94
2021/05/03 18:46:13;;;;;;;4.10;1.33;;;7.80;99.90;;;;;;5082411;28;20024;-94
2021/05/03 18:48:40;;;;;;;3.78;1.73;;;7.80;99.90;;;;;;5078402;28;20028;-96
2021/05/03 18:51:06;;;;;;;3.38;1.23;;;7.90;99.90;;;;;;5079161;28;20039;-95
2021/05/03 18:53:32;;;;;;;3.53;1.20;;;7.90;99.90;;;;;;5078335;28;20131;-94
2021/05/03 18:55:58;;;;;;;2.28;0.90;;;7.90;99.90;;;;;;5079947;28;20129;-93
2021/05/03 18:58:26;;;;;;;5.32;0.70;;;7.80;99.90;;;;;;5082266;28;20016;-95
2021/05/03 19:00:52;;;;;;;4.07;1.10;;;7.80;99.90;;;;;;5080544;28;20029;-94
2021/05/03 19:03:21;;;;;;;1.83;0.75;;;7.80;99.90;;;;;;5083214;28;20043;-95
2021/05/03 19:05:49;;;;;;;3.42;1.08;;;7.80;99.90;;;;;;5085734;28;20016;-94
2021/05/03 19:08:19;;;;;;;3.47;1.17;;;7.80;99.90;;;;;;5078897;28;20154;-95
2021/05/03 19:11:00;;;;;;;5.07;1.38;;;7.80;99.90;;;;;;5092803;28;20017;-94
2021/05/03 19:13:28;;;;;;;4.00;0.80;;;7.80;99.90;;;;;;5082428;28;20033;-94
2021/05/03 19:15:54;;;;;;;2.60;1.10;;;7.90;99.90;;;;;;5079290;28;20032;-94
2021/05/03 19:18:30;;;;;;;3.63;1.20;;;7.90;99.90;;;;;;5083499;28;20037;-94
2021/05/03 19:21:21;;;;;;;5.55;1.20;;;7.90;99.90;;;;;;5091970;28;20110;-93
2021/05/03 19:23:50;;;;;;;4.90;1.33;;;7.90;99.90;;;;;;5086801;28;20077;-94
2021/05/03 19:26:18;;;;;;;5.00;0.98;;;7.90;99.90;;;;;;5082529;28;20033;-93
2021/05/03 19:28:46;;;;;;;5.50;1.00;;;7.90;99.90;;;;;;5097163;28;20028;-94
2021/05/03 19:34:18;;;;;;;1.92;0.80;;;8.00;99.90;;;;;;5099440;28;20059;-95
2021/05/03 19:36:47;;;;;;;3.97;1.00;;;8.00;99.90;;;;;;5107171;28;20035;-94
2021/05/03 19:39:16;;;;;;;2.40;0.90;;;8.00;99.90;;;;;;5095259;28;20052;-92
2021/05/03 19:41:45;;;;;;;2.35;0.73;;;8.00;99.90;;;;;;5086126;28;20025;-95
2021/05/03 19:44:10;;;;;;;3.53;1.30;;;8.00;99.90;;;;;;5089196;28;20039;-95
2021/05/03 19:46:44;;;;;;;7.28;1.42;;;8.00;99.90;;;;;;5083183;28;20020;-95
2021/05/03 19:49:19;;;;;;;2.15;0.70;;;8.00;99.90;;;;;;5077201;28;20031;-95
2021/05/03 19:57:39;;;;;;;4.75;1.00;;;7.40;99.90;;;;;;5082610;28;20075;-93
2021/05/03 20:05:36;;;;;;;3.85;1.13;;;6.80;99.90;;;;;;5083474;28;20028;-94
2021/05/03 20:08:02;;;;;;;2.15;0.80;;;6.70;99.90;;;;;;5076533;28;20112;-93
2021/05/03 20:10:28;;;;;;;1.80;1.08;;;6.60;99.90;;;;;;5078533;28;20128;-94
2021/05/03 20:12:53;;;;;;;3.28;1.10;;;6.60;99.90;;;;;;5081894;28;20021;-94
2021/05/03 20:15:19;;;;;;;3.38;0.88;;;6.60;99.90;;;;;;5078528;28;20410;-93
2021/05/03 20:17:47;;;;;;;2.10;1.50;;;6.60;99.90;;;;;;5074998;28;20032;-94
2021/05/03 20:20:15;;;;;;;1.90;1.38;;;6.60;99.90;;;;;;5074854;28;20029;-94
2021/05/03 20:22:41;;;;;;;3.50;1.30;;;6.60;99.90;;;;;;5075124;28;20043;-94
2021/05/03 20:25:07;;;;;;;4.70;1.15;;;6.60;99.90;;;;;;5074925;28;20028;-93
2021/05/03 20:27:35;;;;;;;5.03;1.20;;;6.60;99.90;;;;;;5076544;28;20016;-93
2021/05/03 20:30:01;;;;;;;3.92;1.05;;;6.60;99.90;;;;;;5089194;28;20034;-94
2021/05/03 20:32:27;;;;;;;5.25;1.00;;;6.50;99.90;;;;;;5080704;28;20136;-94
2021/05/03 20:34:59;;;;;;;4.65;1.50;;;6.50;99.90;;;;;;5084281;28;20636;-95
2021/05/03 20:40:04;;;;;;;4.65;1.45;;;6.50;99.90;;;;;;5075211;28;20040;-95
2021/05/03 20:42:40;;;;;;;8.88;1.30;;;6.50;99.90;;;;;;5089384;28;20040;-95
2021/05/03 20:45:08;;;;;;;6.75;1.27;;;6.50;99.90;;;;;;5098702;28;20031;-94
2021/05/03 20:47:34;;;;;;;4.32;1.17;;;6.50;99.90;;;;;;5079023;28;20024;-94
2021/05/03 20:50:00;;;;;;;6.43;1.35;;;6.50;99.90;;;;;;5088259;28;20660;-94
2021/05/03 20:52:26;;;;;;;10.77;1.67;;;6.50;99.90;;;;;;5086135;28;20062;-93
2021/05/03 20:54:52;;;;;;;8.50;1.77;;;6.50;99.90;;;;;;5088880;28;20024;-94
2021/05/03 20:57:18;;;;;;;6.63;1.60;;;6.50;99.90;;;;;;5086743;28;20036;-94
2021/05/03 20:59:43;;;;;;;6.95;1.55;;;6.60;99.90;;;;;;5080043;28;20558;-93
2021/05/03 21:02:09;;;;;;;5.53;1.85;;;6.60;99.90;;;;;;5087701;28;20124;-93
2021/05/03 21:04:36;;;;;;;7.82;2.00;;;6.60;99.90;;;;;;5086189;28;20059;-94
2021/05/03 21:07:02;;;;;;;6.70;2.20;;;6.60;99.90;;;;;;5084328;28;20025;-93
2021/05/03 21:09:28;;;;;;;8.93;2.38;;;6.70;99.90;;;;;;5082070;28;20020;-94
2021/05/03 21:11:53;;;;;;;9.60;2.28;;;6.70;99.90;;;;;;5088991;28;20054;-93
2021/05/03 21:14:19;;;;;;;8.23;1.98;;;6.70;99.90;;;;;;5077345;28;20024;-93
2021/05/03 21:16:45;;;;;;;13.55;3.22;;;6.80;99.90;;;;;;5077246;28;20039;-94
2021/05/03 21:19:11;;;;;;;16.65;2.60;;;6.80;99.90;;;;;;5088611;28;20028;-92
2021/05/03 21:21:43;;;;;;;17.15;2.53;;;6.80;99.90;;;;;;5084793;28;20021;-95
2021/05/03 21:24:09;;;;;;;23.77;3.08;;;6.90;99.90;;;;;;5090996;28;20394;-94
2021/05/03 21:26:35;;;;;;;17.08;2.83;;;6.90;99.90;;;;;;5091940;28;20024;-94
2021/05/03 21:29:00;;;;;;;23.95;5.78;;;7.00;99.90;;;;;;5084631;28;20024;-94
2021/05/03 21:31:28;;;;;;;23.52;4.45;;;7.10;99.90;;;;;;5091795;28;20112;-96
2021/05/03 21:33:56;;;;;;;16.25;2.78;;;7.20;99.90;;;;;;5076699;28;20487;-94
2021/05/03 21:36:24;;;;;;;13.63;3.65;;;7.30;99.90;;;;;;5086019;28;20115;-94
2021/05/03 21:38:53;;;;;;;21.90;3.58;;;7.40;99.90;;;;;;5088853;28;20043;-94
2021/05/03 21:41:20;;;;;;;25.08;4.20;;;7.40;99.90;;;;;;5090159;28;20063;-94
2021/05/03 21:43:46;;;;;;;23.83;3.60;;;7.50;99.90;;;;;;5087428;28;20035;-94
2021/05/03 21:46:12;;;;;;;23.42;4.85;;;7.50;99.90;;;;;;5085934;28;20044;-94
2021/05/03 21:48:38;;;;;;;6.60;2.80;;;7.50;99.90;;;;;;5086728;28;20062;-94
2021/05/03 21:51:04;;;;;;;24.35;3.25;;;7.50;99.90;;;;;;5098299;28;20517;-93
2021/05/03 21:53:30;;;;;;;17.45;3.80;;;7.60;99.90;;;;;;5089899;28;20046;-93
2021/05/03 21:55:56;;;;;;;17.85;3.58;;;7.60;99.90;;;;;;5087840;28;21316;-93
2021/05/03 21:58:21;;;;;;;18.88;4.13;;;7.60;99.90;;;;;;5083889;28;20025;-94
2021/05/03 22:00:47;;;;;;;27.13;3.80;;;7.60;99.90;;;;;;5089472;28;20028;-93
2021/05/03 22:03:13;;;;;;;15.63;3.03;;;7.60;99.90;;;;;;5092793;28;20047;-95
2021/05/03 22:05:39;;;;;;;18.55;3.10;;;7.50;99.90;;;;;;5080984;28;20109;-94
2021/05/03 22:08:05;;;;;;;13.30;2.38;;;7.50;99.90;;;;;;5092000;28;20140;-95
2021/05/03 22:10:31;;;;;;;11.45;2.53;;;7.50;99.90;;;;;;5093281;28;20124;-95
2021/05/03 22:12:58;;;;;;;11.98;3.83;;;7.50;99.90;;;;;;5089847;28;20032;-94
2021/05/03 22:15:24;;;;;;;15.80;2.80;;;7.60;99.90;;;;;;5072434;28;20024;-93
2021/05/03 22:18:00;;;;;;;15.10;3.60;;;7.60;99.90;;;;;;5074263;28;20035;-93
2021/05/03 22:23:50;;;;;;;15.15;3.70;;;7.50;99.90;;;;;;5074833;28;20108;-93
2021/05/03 22:28:32;;;;;;;13.57;2.40;;;7.50;99.90;;;;;;5094668;28;20100;-94
2021/05/03 22:31:03;;;;;;;14.53;3.63;;;7.50;99.90;;;;;;5081947;28;20097;-95
2021/05/03 22:33:32;;;;;;;13.68;3.28;;;7.50;99.90;;;;;;5074566;28;20270;-93
2021/05/03 22:36:02;;;;;;;9.90;2.67;;;7.50;99.90;;;;;;5093875;28;20865;-93
2021/05/03 22:38:43;;;;;;;14.43;3.10;;;7.40;99.90;;;;;;5094019;28;20031;-93
2021/05/03 23:00:35;;;;;;;13.75;2.97;;;7.30;99.90;;;;;;5070275;28;20036;-93
2021/05/03 23:05:56;;;;;;;12.27;2.70;;;7.30;99.90;;;;;;5072163;28;20024;-94
2021/05/03 23:17:10;;;;;;;14.93;2.40;;;7.20;99.90;;;;;;5072530;28;20029;-93
2021/05/03 23:19:05;;;;;;;13.88;2.05;;;7.20;99.90;;;;;;5071978;28;20103;-93
2021/05/03 23:21:46;;;;;;;9.80;2.70;;;7.20;99.90;;;;;;5070851;28;20112;-92
2021/05/03 23:24:18;;;;;;;8.68;2.10;;;7.20;99.90;;;;;;5071022;28;20032;-94
2021/05/03 23:26:45;;;;;;;16.33;2.97;;;7.10;99.90;;;;;;5071605;28;20025;-95
2021/05/03 23:29:11;;;;;;;15.00;4.35;;;7.10;99.90;;;;;;5071815;28;20043;-95
2021/05/03 23:31:37;;;;;;;10.35;2.30;;;7.20;99.90;;;;;;5071195;28;20744;-94
2021/05/03 23:34:03;;;;;;;8.65;2.53;;;7.20;99.90;;;;;;5071011;28;20028;-94
2021/05/03 23:36:31;;;;;;;11.00;2.65;;;7.20;99.90;;;;;;5071325;28;20025;-94
2021/05/03 23:39:00;;;;;;;12.80;2.58;;;7.20;99.90;;;;;;5071809;28;20459;-94
2021/05/03 23:41:39;;;;;;;19.23;3.70;;;7.30;99.90;;;;;;5072968;28;20037;-94
2021/05/03 23:44:08;;;;;;;13.75;2.97;;;7.30;99.90;;;;;;5070789;28;20032;-94
2021/05/03 23:46:35;;;;;;;9.82;2.22;;;7.30;99.90;;;;;;5070611;28;20410;-95
2021/05/03 23:49:03;;;;;;;5.40;1.63;;;7.30;99.90;;;;;;5072757;28;20020;-94
2021/05/03 23:51:29;;;;;;;7.88;2.25;;;7.30;99.90;;;;;;5073828;28;20115;-93
2021/05/03 23:53:55;;;;;;;10.98;2.30;;;7.30;99.90;;;;;;5074119;28;20566;-93
2021/05/03 23:56:20;;;;;;;8.73;2.95;;;7.30;99.90;;;;;;5073588;28;20029;-92
2021/05/03 23:58:46;;;;;;;8.68;2.60;;;7.30;99.90;;;;;;5073490;28;20111;-92
